ICN7240 CYUL-CYQB
Flight info
| Callsign | ICN7240 |
|---|---|
| Flight time | 0h 37m |
| Altitude | 19000 |
| Route | SINRO PESAC4 |
| Aircraft | AT76/M-SDFGIRY/S |
Departure
| Time | 2026-05-09 10:43 |
|---|---|
| Airport | Montreal / Pierre Elliott Trudeau International Airport (CYUL) |
Arrival
| Time | 2026-05-09 11:21 |
|---|---|
| Airport | Quebec Jean Lesage International Airport (CYQB) |
| Time | Latitude | Longitude | Altitude | Speed | Heading |
|---|---|---|---|---|---|
| 2026-05-09 10:22 | 45.46092 | -73.74644 | 100 ft | 0 kts | 207° |
| 2026-05-09 10:32 | 45.46097 | -73.74640 | 100 ft | 3 kts | 207° |
| 2026-05-09 10:32 | 45.46113 | -73.74628 | 100 ft | 3 kts | 207° |
| 2026-05-09 10:32 | 45.46130 | -73.74615 | 100 ft | 3 kts | 207° |
| 2026-05-09 10:32 | 45.46133 | -73.74614 | 100 ft | 0 kts | 207° |
| 2026-05-09 10:35 | 45.46132 | -73.74614 | 100 ft | 1 kts | 206° |
| 2026-05-09 10:35 | 45.46129 | -73.74610 | 100 ft | 1 kts | 149° |
| 2026-05-09 10:36 | 45.46129 | -73.74580 | 100 ft | 7 kts | 91° |
| 2026-05-09 10:36 | 45.46130 | -73.74503 | 100 ft | 8 kts | 88° |
| 2026-05-09 10:36 | 45.46133 | -73.74425 | 100 ft | 7 kts | 88° |
| 2026-05-09 10:36 | 45.46134 | -73.74355 | 100 ft | 8 kts | 89° |
| 2026-05-09 10:37 | 45.46135 | -73.74263 | 100 ft | 10 kts | 88° |
| 2026-05-09 10:37 | 45.46138 | -73.74161 | 100 ft | 10 kts | 87° |
| 2026-05-09 10:37 | 45.46144 | -73.74073 | 101 ft | 6 kts | 77° |
| 2026-05-09 10:37 | 45.46180 | -73.74005 | 101 ft | 12 kts | 43° |
| 2026-05-09 10:38 | 45.46251 | -73.73912 | 102 ft | 15 kts | 43° |
| 2026-05-09 10:38 | 45.46328 | -73.73811 | 103 ft | 15 kts | 41° |
| 2026-05-09 10:38 | 45.46422 | -73.73687 | 104 ft | 21 kts | 43° |
| 2026-05-09 10:38 | 45.46543 | -73.73528 | 106 ft | 26 kts | 43° |
| 2026-05-09 10:39 | 45.46668 | -73.73365 | 108 ft | 23 kts | 41° |
| 2026-05-09 10:39 | 45.46777 | -73.73222 | 110 ft | 20 kts | 43° |
| 2026-05-09 10:39 | 45.46872 | -73.73097 | 111 ft | 17 kts | 42° |
| 2026-05-09 10:39 | 45.46962 | -73.72979 | 113 ft | 21 kts | 42° |
| 2026-05-09 10:40 | 45.47072 | -73.72832 | 113 ft | 18 kts | 41° |
| 2026-05-09 10:40 | 45.47136 | -73.72733 | 113 ft | 10 kts | 81° |
| 2026-05-09 10:40 | 45.47089 | -73.72698 | 113 ft | 9 kts | 190° |
| 2026-05-09 10:40 | 45.47064 | -73.72705 | 113 ft | 0 kts | 192° |
| 2026-05-09 10:42 | 45.47061 | -73.72706 | 111 ft | 2 kts | 192° |
| 2026-05-09 10:42 | 45.46996 | -73.72726 | 111 ft | 20 kts | 192° |
| 2026-05-09 10:42 | 45.46892 | -73.72759 | 112 ft | 12 kts | 193° |
| 2026-05-09 10:42 | 45.46806 | -73.72791 | 111 ft | 17 kts | 203° |
| 2026-05-09 10:43 | 45.46608 | -73.73036 | 109 ft | 68 kts | 221° |
| 2026-05-09 10:43 | 45.46123 | -73.73667 | 107 ft | 120 kts | 220° |
| 2026-05-09 10:43 | 45.45451 | -73.74512 | 414 ft | 135 kts | 222° |
| 2026-05-09 10:43 | 45.44731 | -73.75486 | 865 ft | 147 kts | 224° |
| 2026-05-09 10:44 | 45.43972 | -73.76452 | 1502 ft | 141 kts | 226° |
| 2026-05-09 10:44 | 45.43225 | -73.77430 | 1694 ft | 157 kts | 225° |
| 2026-05-09 10:44 | 45.42356 | -73.78556 | 1710 ft | 177 kts | 228° |
| 2026-05-09 10:44 | 45.41932 | -73.80115 | 2085 ft | 170 kts | 275° |
| 2026-05-09 10:45 | 45.42168 | -73.81727 | 2574 ft | 165 kts | 282° |
| 2026-05-09 10:46 | 45.45306 | -73.85666 | 3699 ft | 190 kts | 11° |
| 2026-05-09 10:46 | 45.46561 | -73.85119 | 4200 ft | 185 kts | 18° |
| 2026-05-09 10:46 | 45.47715 | -73.84346 | 4571 ft | 187 kts | 23° |
| 2026-05-09 10:46 | 45.48870 | -73.83495 | 4977 ft | 187 kts | 23° |
| 2026-05-09 10:47 | 45.50030 | -73.82633 | 5350 ft | 188 kts | 23° |
| 2026-05-09 10:47 | 45.51202 | -73.81777 | 5727 ft | 189 kts | 22° |
| 2026-05-09 10:47 | 45.52387 | -73.80950 | 6100 ft | 190 kts | 21° |
| 2026-05-09 10:47 | 45.53581 | -73.80134 | 6462 ft | 191 kts | 20° |
| 2026-05-09 10:48 | 45.54783 | -73.79327 | 6808 ft | 192 kts | 20° |
| 2026-05-09 10:48 | 45.55992 | -73.78517 | 7193 ft | 192 kts | 21° |
| 2026-05-09 10:48 | 45.57209 | -73.77703 | 7548 ft | 193 kts | 20° |
| 2026-05-09 10:48 | 45.58432 | -73.76894 | 7888 ft | 194 kts | 20° |
| 2026-05-09 10:49 | 45.59639 | -73.76094 | 8231 ft | 195 kts | 21° |
| 2026-05-09 10:49 | 45.60869 | -73.75273 | 8565 ft | 196 kts | 21° |
| 2026-05-09 10:49 | 45.62108 | -73.74440 | 8863 ft | 198 kts | 21° |
| 2026-05-09 10:49 | 45.63360 | -73.73595 | 9208 ft | 198 kts | 21° |
| 2026-05-09 10:50 | 45.64606 | -73.72751 | 9550 ft | 199 kts | 21° |
| 2026-05-09 10:50 | 45.65861 | -73.71899 | 9881 ft | 200 kts | 21° |
| 2026-05-09 10:50 | 45.67119 | -73.71045 | 10166 ft | 201 kts | 21° |
| 2026-05-09 10:50 | 45.68382 | -73.70188 | 10458 ft | 201 kts | 21° |
| 2026-05-09 10:51 | 45.69653 | -73.69327 | 10735 ft | 202 kts | 21° |
| 2026-05-09 10:51 | 45.70927 | -73.68463 | 11026 ft | 203 kts | 20° |
| 2026-05-09 10:51 | 45.72208 | -73.67597 | 11301 ft | 204 kts | 20° |
| 2026-05-09 10:51 | 45.73497 | -73.66725 | 11588 ft | 205 kts | 20° |
| 2026-05-09 10:52 | 45.74790 | -73.65851 | 11866 ft | 206 kts | 20° |
| 2026-05-09 10:52 | 45.76069 | -73.64984 | 12144 ft | 207 kts | 20° |
| 2026-05-09 10:52 | 45.77371 | -73.64099 | 12420 ft | 207 kts | 20° |
| 2026-05-09 10:52 | 45.78679 | -73.63211 | 12693 ft | 208 kts | 20° |
| 2026-05-09 10:53 | 45.79992 | -73.62320 | 12967 ft | 209 kts | 20° |
| 2026-05-09 10:53 | 45.81309 | -73.61424 | 13237 ft | 210 kts | 19° |
| 2026-05-09 10:53 | 45.82630 | -73.60525 | 13514 ft | 211 kts | 19° |
| 2026-05-09 10:53 | 45.83957 | -73.59623 | 13780 ft | 211 kts | 19° |
| 2026-05-09 10:54 | 45.85288 | -73.58719 | 14010 ft | 212 kts | 19° |
| 2026-05-09 10:54 | 45.86625 | -73.57810 | 14244 ft | 213 kts | 19° |
| 2026-05-09 10:54 | 45.87964 | -73.56897 | 14468 ft | 214 kts | 19° |
| 2026-05-09 10:54 | 45.89309 | -73.55980 | 14706 ft | 214 kts | 19° |
| 2026-05-09 10:55 | 45.90152 | -73.55238 | 14801 ft | 220 kts | 39° |
| 2026-05-09 10:55 | 45.91126 | -73.53494 | 15008 ft | 226 kts | 51° |
| 2026-05-09 10:55 | 45.91992 | -73.51594 | 15233 ft | 228 kts | 53° |
| 2026-05-09 10:55 | 45.92847 | -73.49675 | 15458 ft | 228 kts | 53° |
| 2026-05-09 10:56 | 45.93711 | -73.47756 | 15670 ft | 229 kts | 52° |
| 2026-05-09 10:56 | 45.94602 | -73.45854 | 15906 ft | 229 kts | 51° |
| 2026-05-09 10:56 | 45.95511 | -73.43966 | 16115 ft | 230 kts | 51° |
| 2026-05-09 10:56 | 45.96425 | -73.42074 | 16329 ft | 231 kts | 51° |
| 2026-05-09 10:57 | 45.97343 | -73.40180 | 16528 ft | 231 kts | 50° |
| 2026-05-09 10:57 | 45.98262 | -73.38282 | 16719 ft | 232 kts | 50° |
| 2026-05-09 10:57 | 45.99186 | -73.36372 | 16915 ft | 233 kts | 51° |
| 2026-05-09 10:57 | 46.00110 | -73.34458 | 17119 ft | 233 kts | 51° |
| 2026-05-09 10:58 | 46.01035 | -73.32540 | 17312 ft | 234 kts | 51° |
| 2026-05-09 10:58 | 46.01964 | -73.30613 | 17497 ft | 234 kts | 51° |
| 2026-05-09 10:58 | 46.02895 | -73.28680 | 17672 ft | 235 kts | 51° |
| 2026-05-09 10:58 | 46.03828 | -73.26745 | 17855 ft | 235 kts | 51° |
| 2026-05-09 10:59 | 46.04766 | -73.24814 | 18032 ft | 236 kts | 50° |
| 2026-05-09 10:59 | 46.05718 | -73.22886 | 18198 ft | 236 kts | 50° |
| 2026-05-09 10:59 | 46.06675 | -73.20958 | 18348 ft | 236 kts | 50° |
| 2026-05-09 10:59 | 46.07621 | -73.19017 | 18503 ft | 237 kts | 51° |
| 2026-05-09 11:00 | 46.08561 | -73.17072 | 18652 ft | 237 kts | 51° |
| 2026-05-09 11:00 | 46.09498 | -73.15117 | 18801 ft | 237 kts | 51° |
| 2026-05-09 11:00 | 46.10427 | -73.13177 | 18870 ft | 241 kts | 51° |
| 2026-05-09 11:00 | 46.11387 | -73.11172 | 18903 ft | 245 kts | 51° |
| 2026-05-09 11:01 | 46.12366 | -73.09129 | 18921 ft | 250 kts | 51° |
| 2026-05-09 11:01 | 46.13362 | -73.07047 | 18929 ft | 254 kts | 51° |
| 2026-05-09 11:01 | 46.14375 | -73.04929 | 18925 ft | 258 kts | 51° |
| 2026-05-09 11:01 | 46.15423 | -73.02733 | 18588 ft | 275 kts | 52° |
| 2026-05-09 11:02 | 46.16541 | -73.00382 | 18156 ft | 292 kts | 52° |
| 2026-05-09 11:02 | 46.17724 | -72.97902 | 17639 ft | 306 kts | 52° |
| 2026-05-09 11:02 | 46.18952 | -72.95322 | 17099 ft | 317 kts | 52° |
| 2026-05-09 11:02 | 46.20192 | -72.92698 | 16569 ft | 315 kts | 53° |
| 2026-05-09 11:03 | 46.21408 | -72.90087 | 16054 ft | 311 kts | 53° |
| 2026-05-09 11:03 | 46.22607 | -72.87503 | 15555 ft | 308 kts | 53° |
| 2026-05-09 11:03 | 46.23804 | -72.84957 | 15119 ft | 303 kts | 52° |
| 2026-05-09 11:03 | 46.24970 | -72.82512 | 15043 ft | 290 kts | 52° |
| 2026-05-09 11:04 | 46.26128 | -72.80142 | 15013 ft | 287 kts | 51° |
| 2026-05-09 11:04 | 46.27261 | -72.77818 | 15002 ft | 286 kts | 52° |
| 2026-05-09 11:04 | 46.28385 | -72.75452 | 14993 ft | 284 kts | 52° |
| 2026-05-09 11:04 | 46.29499 | -72.73097 | 14983 ft | 283 kts | 52° |
| 2026-05-09 11:05 | 46.30609 | -72.70749 | 14986 ft | 282 kts | 52° |
| 2026-05-09 11:05 | 46.31714 | -72.68409 | 14987 ft | 281 kts | 52° |
| 2026-05-09 11:05 | 46.32814 | -72.66077 | 14986 ft | 280 kts | 52° |
| 2026-05-09 11:05 | 46.33911 | -72.63751 | 14982 ft | 280 kts | 52° |
| 2026-05-09 11:06 | 46.35009 | -72.61420 | 14983 ft | 279 kts | 52° |
| 2026-05-09 11:06 | 46.36067 | -72.59170 | 14984 ft | 279 kts | 52° |
| 2026-05-09 11:06 | 46.37158 | -72.56850 | 14983 ft | 279 kts | 52° |
| 2026-05-09 11:06 | 46.38257 | -72.54536 | 14981 ft | 278 kts | 52° |
| 2026-05-09 11:07 | 46.39360 | -72.52235 | 14982 ft | 278 kts | 52° |
| 2026-05-09 11:07 | 46.40451 | -72.49919 | 14984 ft | 278 kts | 52° |
| 2026-05-09 11:07 | 46.41533 | -72.47598 | 14987 ft | 278 kts | 52° |
| 2026-05-09 11:07 | 46.42616 | -72.45278 | 14984 ft | 278 kts | 53° |
| 2026-05-09 11:08 | 46.43699 | -72.42956 | 14988 ft | 278 kts | 52° |
| 2026-05-09 11:08 | 46.44779 | -72.40630 | 14951 ft | 279 kts | 53° |
| 2026-05-09 11:08 | 46.45888 | -72.38246 | 14569 ft | 289 kts | 53° |
| 2026-05-09 11:08 | 46.47020 | -72.35808 | 14197 ft | 293 kts | 53° |
| 2026-05-09 11:09 | 46.48155 | -72.33376 | 13837 ft | 296 kts | 53° |
| 2026-05-09 11:09 | 46.49311 | -72.30891 | 13439 ft | 298 kts | 53° |
| 2026-05-09 11:09 | 46.50473 | -72.28390 | 13014 ft | 300 kts | 53° |
| 2026-05-09 11:09 | 46.51638 | -72.25876 | 12603 ft | 300 kts | 53° |
| 2026-05-09 11:10 | 46.52799 | -72.23356 | 12199 ft | 300 kts | 53° |
| 2026-05-09 11:10 | 46.53963 | -72.20837 | 11797 ft | 300 kts | 53° |
| 2026-05-09 11:10 | 46.55114 | -72.18326 | 11412 ft | 295 kts | 56° |
| 2026-05-09 11:10 | 46.55956 | -72.15623 | 11001 ft | 292 kts | 68° |
| 2026-05-09 11:11 | 46.56637 | -72.12851 | 10616 ft | 290 kts | 69° |
| 2026-05-09 11:11 | 46.57312 | -72.10106 | 10233 ft | 287 kts | 68° |
| 2026-05-09 11:11 | 46.58035 | -72.07414 | 9857 ft | 284 kts | 66° |
| 2026-05-09 11:11 | 46.58789 | -72.04766 | 9435 ft | 282 kts | 66° |
| 2026-05-09 11:12 | 46.59531 | -72.02140 | 9041 ft | 280 kts | 66° |
| 2026-05-09 11:12 | 46.60256 | -71.99530 | 8661 ft | 276 kts | 68° |
| 2026-05-09 11:12 | 46.60692 | -71.96832 | 8284 ft | 274 kts | 81° |
| 2026-05-09 11:12 | 46.60941 | -71.94126 | 7895 ft | 274 kts | 82° |
| 2026-05-09 11:13 | 46.61201 | -71.91366 | 7491 ft | 275 kts | 81° |
| 2026-05-09 11:13 | 46.61526 | -71.88612 | 7072 ft | 276 kts | 78° |
| 2026-05-09 11:13 | 46.61898 | -71.85884 | 6705 ft | 274 kts | 78° |
| 2026-05-09 11:13 | 46.62264 | -71.83166 | 6323 ft | 273 kts | 78° |
| 2026-05-09 11:14 | 46.62619 | -71.80457 | 5927 ft | 271 kts | 78° |
| 2026-05-09 11:14 | 46.62967 | -71.77777 | 5529 ft | 268 kts | 79° |
| 2026-05-09 11:14 | 46.63313 | -71.75126 | 5153 ft | 265 kts | 79° |
| 2026-05-09 11:14 | 46.63650 | -71.72541 | 4790 ft | 262 kts | 79° |
| 2026-05-09 11:15 | 46.63985 | -71.69952 | 4429 ft | 259 kts | 79° |
| 2026-05-09 11:15 | 46.64303 | -71.67496 | 4082 ft | 233 kts | 79° |
| 2026-05-09 11:15 | 46.64590 | -71.65295 | 3788 ft | 215 kts | 78° |
| 2026-05-09 11:15 | 46.64876 | -71.63140 | 3513 ft | 218 kts | 78° |
| 2026-05-09 11:16 | 46.65170 | -71.60967 | 3244 ft | 220 kts | 78° |
| 2026-05-09 11:16 | 46.65504 | -71.58943 | 3134 ft | 190 kts | 62° |
| 2026-05-09 11:16 | 46.66369 | -71.57767 | 3065 ft | 160 kts | 25° |
| 2026-05-09 11:16 | 46.67164 | -71.56734 | 3044 ft | 155 kts | 53° |
| 2026-05-09 11:17 | 46.67830 | -71.55486 | 3029 ft | 156 kts | 45° |
| 2026-05-09 11:17 | 46.68606 | -71.54369 | 3029 ft | 159 kts | 40° |
| 2026-05-09 11:17 | 46.69443 | -71.53253 | 2861 ft | 166 kts | 40° |
| 2026-05-09 11:17 | 46.70278 | -71.52105 | 2648 ft | 165 kts | 42° |
| 2026-05-09 11:18 | 46.71091 | -71.50921 | 2422 ft | 165 kts | 44° |
| 2026-05-09 11:18 | 46.71899 | -71.49742 | 2190 ft | 162 kts | 43° |
| 2026-05-09 11:18 | 46.72670 | -71.48627 | 1987 ft | 148 kts | 43° |
| 2026-05-09 11:18 | 46.73361 | -71.47649 | 1779 ft | 132 kts | 42° |
| 2026-05-09 11:19 | 46.73996 | -71.46758 | 1616 ft | 126 kts | 43° |
| 2026-05-09 11:19 | 46.74624 | -71.45848 | 1389 ft | 129 kts | 44° |
| 2026-05-09 11:19 | 46.75247 | -71.44933 | 1187 ft | 126 kts | 44° |
| 2026-05-09 11:19 | 46.75854 | -71.44050 | 967 ft | 120 kts | 44° |
| 2026-05-09 11:20 | 46.76441 | -71.43206 | 780 ft | 116 kts | 43° |
| 2026-05-09 11:20 | 46.77017 | -71.42391 | 620 ft | 115 kts | 43° |
| 2026-05-09 11:20 | 46.77596 | -71.41571 | 466 ft | 117 kts | 43° |
| 2026-05-09 11:20 | 46.78176 | -71.40734 | 300 ft | 117 kts | 44° |
| 2026-05-09 11:21 | 46.78710 | -71.39967 | 247 ft | 76 kts | 46° |
| 2026-05-09 11:21 | 46.78861 | -71.39732 | 248 ft | 12 kts | 73° |
| 2026-05-09 11:21 | 46.78844 | -71.39595 | 247 ft | 15 kts | 99° |
| 2026-05-09 11:21 | 46.78837 | -71.39424 | 244 ft | 14 kts | 76° |
| 2026-05-09 11:22 | 46.78905 | -71.39315 | 243 ft | 16 kts | 38° |
| 2026-05-09 11:22 | 46.78986 | -71.39213 | 243 ft | 17 kts | 46° |
| 2026-05-09 11:22 | 46.79093 | -71.39061 | 243 ft | 22 kts | 44° |
| 2026-05-09 11:22 | 46.79188 | -71.38924 | 242 ft | 16 kts | 45° |
| 2026-05-09 11:23 | 46.79178 | -71.38823 | 242 ft | 13 kts | 152° |
| 2026-05-09 11:23 | 46.79084 | -71.38742 | 241 ft | 15 kts | 148° |
| 2026-05-09 11:23 | 46.79007 | -71.38682 | 240 ft | 13 kts | 154° |
| 2026-05-09 11:23 | 46.78966 | -71.38652 | 240 ft | 0 kts | 154° |
| 2026-05-09 11:24 | 46.78936 | -71.38611 | 240 ft | 11 kts | 120° |
| 2026-05-09 11:24 | 46.78950 | -71.38524 | 239 ft | 11 kts | 84° |
| 2026-05-09 11:24 | 46.78975 | -71.38479 | 239 ft | 8 kts | 26° |
| 2026-05-09 11:25 | 46.79014 | -71.38456 | 240 ft | 0 kts | 21° |